Terminal Aerodrome Forecast
Issued by NWS

Home | Current Version | Previous Version | Text Only | Print | Product List | Glossary On
Versions: 1 2 3 4 5 6 7 8 9 10 11 12 13 14 15 16 17 18 19 20 21 22 23 24 25 26 27 28
000
FTUS46 KMTR 032116 AAA
TAFSFO
TAF AMD
KSFO 032116Z 0321/0424 27020G28KT P6SM SKC
     FM040400 27015KT P6SM SKC
     FM040900 25010KT P6SM FEW010 BKN015
     FM041600 25015G20KT P6SM FEW010
     FM042100 25021G28KT P6SM SKC=

USA.gov is the U.S. government's official web portal to all federal, state and local government web resources and services.